SBKG/CPV METAR and TAF weather

Enter ICAO airport designator
Station Type Date Time Source
SBKG METAR 2020/01/17 22:00 UTC NOAA

SBKG 172200Z 09016KT 9999 SCT045 26/20 Q1016


Station Type Date Time Source
SBKG Decoded METAR 2020/01/17 22:00 UTC NOAA

Campina Grande, Brazil (SBKG) 07-13S 035-53W
Jan 17, 2020 - 05:00 PM EST / 2020.01.17 2200 UTC
Wind: from the E (090 degrees) at 18 MPH (16 KT):0
Visibility: greater than 7 mile(s):0
Sky conditions: partly cloudy
Temperature: 78 F (26 C)
Dew Point: 68 F (20 C)
Relative Humidity: 69%
Pressure (altimeter): 30.00 in. Hg (1016 hPa)
ob: SBKG 172200Z 09016KT 9999 SCT045 26/20 Q1016
cycle: 22

Station Type Date Time Source
SBKG TAF 2020/01/17 18:33 UTC NOAA

TAF SBKG 171600Z 1718/1806 10013KT 9999 SCT040 TX33/1718Z TN22/1806Z
BECMG 1720/1722 CAVOK
BECMG 1803/1805 SCT015
RMK PFY

Example: see airport list